Terminal Aerodrome Forecast
Issued by NWS

Home | Current Version | Previous Version | Text Only | Print | Product List | Glossary On
Versions: 1 2 3 4 5 6 7 8 9 10 11 12 13 14 15 16 17
000
FTAK31 PAJN 230500
TAFAGY
TAF
PAGY 230530Z 2306/2406 20010KT P6SM VCSH SCT060 BKN080
      TEMPO 2306/2310 20010G18KT 6SM -SHRA FEW010 BKN030 OVC060
     FM240000 21012KT 6SM -SHRA BR BKN025 OVC035
      AMD LTD TO CLD VIS AND WIND=

USA.gov is the U.S. government's official web portal to all federal, state and local government web resources and services.